Terminal Aerodrome Forecast
Issued by NWS

Home | Current Version | Previous Version | Text Only | Print | Product List | Glossary On
Versions: 1 2 3 4 5 6 7 8 9 10 11 12 13 14 15 16 17 18 19 20 21 22
000
FTUS43 KDVN 260500
TAFCID
TAF
KCID 260520Z 2606/2706 33006KT P6SM VCTS SCT025 BKN060CB
      TEMPO 2608/2612 4SM -SHRA BR OVC035
     FM261300 01006KT P6SM VCSH SCT015 SCT035
     FM261700 02005KT P6SM SCT025 BKN120=

USA.gov is the U.S. government's official web portal to all federal, state and local government web resources and services.